createdAt,value
2017-08-07T00:02:17.934Z,4.23
2017-08-07T00:04:45.849Z,4.40
2017-08-07T00:07:13.382Z,4.83
2017-08-07T00:09:40.951Z,4.70
2017-08-07T00:12:08.480Z,4.80
2017-08-07T00:14:36.013Z,4.70
2017-08-07T00:17:03.531Z,4.57
2017-08-07T00:19:31.075Z,4.50
2017-08-07T00:21:58.606Z,3.90
2017-08-07T00:24:26.594Z,4.33
2017-08-07T00:26:54.518Z,4.33
2017-08-07T00:29:22.072Z,4.10
2017-08-07T00:31:49.595Z,4.40
2017-08-07T00:34:18.246Z,4.50
2017-08-07T00:36:46.918Z,4.65
2017-08-07T00:39:14.443Z,3.80
2017-08-07T00:41:41.987Z,3.83
2017-08-07T00:44:09.494Z,4.17
2017-08-07T00:46:37.062Z,3.40
2017-08-07T00:49:04.578Z,4.20
2017-08-07T00:51:32.132Z,4.00
2017-08-07T00:53:59.673Z,4.40
2017-08-07T00:56:27.179Z,4.77
2017-08-07T00:58:54.729Z,4.57
2017-08-07T01:01:22.278Z,4.20
2017-08-07T01:03:49.819Z,4.50
2017-08-07T01:06:17.333Z,3.87
2017-08-07T01:08:45.281Z,4.53
2017-08-07T01:11:12.802Z,4.37
2017-08-07T01:13:40.335Z,3.70
2017-08-07T01:16:07.854Z,3.87
2017-08-07T01:18:35.419Z,4.47
2017-08-07T01:21:03.346Z,3.80
2017-08-07T01:23:30.858Z,4.03
2017-08-07T01:25:58.795Z,4.00
2017-08-07T01:28:26.315Z,3.90
2017-08-07T01:30:53.893Z,3.77
2017-08-07T01:33:21.414Z,4.10
2017-08-07T01:35:48.968Z,4.15
2017-08-07T01:38:16.512Z,3.93
2017-08-07T01:40:44.019Z,4.00
2017-08-07T01:43:11.549Z,4.30
2017-08-07T01:45:39.077Z,4.13
2017-08-07T01:48:07.015Z,3.95
2017-08-07T01:50:34.547Z,3.40
2017-08-07T01:53:02.107Z,4.50
2017-08-07T01:55:29.629Z,4.27
2017-08-07T01:57:58.032Z,4.50
2017-08-07T02:00:25.588Z,3.77
2017-08-07T02:02:53.110Z,3.93
2017-08-07T02:05:21.040Z,3.83
2017-08-07T02:07:48.550Z,3.73
2017-08-07T02:10:16.090Z,3.90
2017-08-07T02:12:43.632Z,4.60
2017-08-07T02:15:11.186Z,4.37
2017-08-07T02:17:38.750Z,4.43
2017-08-07T02:20:06.265Z,4.03
2017-08-07T02:22:33.801Z,3.42
2017-08-07T02:25:01.339Z,4.47
2017-08-07T02:27:28.878Z,4.30
2017-08-07T02:29:56.394Z,3.85
2017-08-07T02:32:23.938Z,4.20
2017-08-07T02:34:51.471Z,4.18
2017-08-07T02:37:19.029Z,4.05
2017-08-07T02:39:46.577Z,3.67
2017-08-07T02:42:14.158Z,3.67
2017-08-07T02:44:42.089Z,4.37
2017-08-07T02:47:09.599Z,3.90
2017-08-07T02:49:37.534Z,3.63
2017-08-07T02:52:05.066Z,4.22
2017-08-07T02:54:32.598Z,4.10
2017-08-07T02:57:00.126Z,4.50
2017-08-07T02:59:28.061Z,3.70
2017-08-07T03:01:55.592Z,3.80
2017-08-07T03:04:23.109Z,4.50
2017-08-07T03:06:51.034Z,4.20
2017-08-07T03:09:18.551Z,4.20
2017-08-07T03:11:46.114Z,3.50
2017-08-07T03:14:13.638Z,3.35
2017-08-07T03:16:41.192Z,3.80
2017-08-07T03:19:08.729Z,3.33
2017-08-07T03:21:36.264Z,4.30
2017-08-07T03:24:03.804Z,4.12
2017-08-07T03:26:31.330Z,4.17
2017-08-07T03:28:58.858Z,3.50
2017-08-07T03:31:26.405Z,4.53
2017-08-07T03:33:53.938Z,4.50
2017-08-07T03:36:21.464Z,4.10
2017-08-07T03:38:49.007Z,4.20
2017-08-07T03:41:17.260Z,4.43
2017-08-07T03:43:44.801Z,4.67
2017-08-07T03:46:12.317Z,4.50
2017-08-07T03:48:40.244Z,3.97
2017-08-07T03:51:07.806Z,4.68
2017-08-07T03:53:35.322Z,4.27
2017-08-07T03:56:02.884Z,4.85
2017-08-07T03:58:30.414Z,3.90
2017-08-07T04:00:57.942Z,4.53
2017-08-07T04:03:25.460Z,4.43
2017-08-07T04:05:53.025Z,4.15
2017-08-07T04:08:20.563Z,4.37
2017-08-07T04:10:48.138Z,4.40
2017-08-07T04:13:15.911Z,4.28
2017-08-07T04:15:43.437Z,3.40
2017-08-07T04:18:11.012Z,4.90
2017-08-07T04:20:38.543Z,4.07
2017-08-07T04:23:06.499Z,4.05
2017-08-07T04:25:34.017Z,4.25
2017-08-07T04:28:01.563Z,4.35
2017-08-07T04:30:29.137Z,3.30
2017-08-07T04:32:56.686Z,3.95
2017-08-07T04:35:24.225Z,3.75
2017-08-07T04:37:51.765Z,3.95
2017-08-07T04:40:19.713Z,3.17
2017-08-07T04:42:47.277Z,3.53
2017-08-07T04:45:14.811Z,4.03
2017-08-07T04:47:42.331Z,3.80
2017-08-07T04:50:09.868Z,3.83
2017-08-07T04:52:37.781Z,3.55
2017-08-07T04:55:05.340Z,4.00
2017-08-07T04:57:32.854Z,4.05
2017-08-07T05:00:00.431Z,3.90
2017-08-07T05:02:27.968Z,3.60
2017-08-07T05:04:55.904Z,4.10
2017-08-07T05:07:23.461Z,3.50
2017-08-07T05:09:51.039Z,3.62
2017-08-07T05:12:18.989Z,3.22
2017-08-07T05:14:46.539Z,3.45
2017-08-07T05:17:14.125Z,3.10
2017-08-07T05:19:42.094Z,3.40
2017-08-07T05:22:09.641Z,3.30
2017-08-07T05:24:37.189Z,4.10
2017-08-07T05:27:04.776Z,3.60
2017-08-07T05:29:32.757Z,3.80
2017-08-07T05:32:00.318Z,3.70
2017-08-07T05:34:29.144Z,3.30
2017-08-07T05:36:56.703Z,3.70
2017-08-07T05:39:24.245Z,2.93
2017-08-07T05:41:51.761Z,3.10
2017-08-07T05:44:19.705Z,3.43
2017-08-07T05:46:47.239Z,3.20
2017-08-07T05:49:14.765Z,3.33
2017-08-07T05:51:42.287Z,3.10
2017-08-07T05:54:09.879Z,2.30
2017-08-07T05:56:37.471Z,2.37
2017-08-07T05:59:04.975Z,2.60
2017-08-07T06:01:32.570Z,2.60
2017-08-07T06:04:00.117Z,2.70
2017-08-07T06:06:27.653Z,2.50
2017-08-07T06:08:55.316Z,2.87
2017-08-07T06:11:23.270Z,2.80
2017-08-07T06:13:50.827Z,2.63
2017-08-07T06:16:18.436Z,2.43
2017-08-07T06:18:46.000Z,2.60
2017-08-07T06:21:13.521Z,3.00
2017-08-07T06:23:41.765Z,2.73
2017-08-07T06:26:09.277Z,3.03
2017-08-07T06:28:36.836Z,2.43
2017-08-07T06:31:04.371Z,2.83
2017-08-07T06:33:33.041Z,3.47
2017-08-07T06:36:00.586Z,2.73
2017-08-07T06:38:28.146Z,2.50
2017-08-07T06:40:55.665Z,2.20
2017-08-07T06:43:23.256Z,2.73
2017-08-07T06:45:50.780Z,3.10
2017-08-07T06:48:18.294Z,2.77
2017-08-07T06:50:45.844Z,2.40
2017-08-07T06:53:13.383Z,2.70
2017-08-07T06:55:40.923Z,2.80
2017-08-07T06:58:08.492Z,2.30
2017-08-07T07:00:36.035Z,2.80
2017-08-07T07:03:03.572Z,2.70
2017-08-07T07:05:31.514Z,2.33
2017-08-07T07:07:59.141Z,2.30
2017-08-07T07:10:26.674Z,2.43
2017-08-07T07:12:54.274Z,3.00
2017-08-07T07:15:21.784Z,2.43
2017-08-07T07:17:49.327Z,2.20
2017-08-07T07:20:17.995Z,3.17
2017-08-07T07:22:45.539Z,2.20
2017-08-07T07:25:13.041Z,2.50
2017-08-07T07:27:40.571Z,2.90
2017-08-07T07:30:08.118Z,3.00
2017-08-07T07:32:35.636Z,2.63
2017-08-07T07:35:03.208Z,3.00
2017-08-07T07:37:30.735Z,2.73
2017-08-07T07:39:58.371Z,2.70
2017-08-07T07:42:25.962Z,2.87
2017-08-07T07:44:53.518Z,2.50
2017-08-07T07:47:21.038Z,3.03
2017-08-07T07:49:49.114Z,3.00
2017-08-07T07:52:16.698Z,2.70
2017-08-07T07:54:44.234Z,2.80
2017-08-07T07:57:12.152Z,2.97
2017-08-07T07:59:39.720Z,2.83
2017-08-07T08:02:07.259Z,2.70
2017-08-07T08:04:34.834Z,3.30
2017-08-07T08:07:02.374Z,2.80
2017-08-07T08:09:29.957Z,3.00
2017-08-07T08:11:57.719Z,2.53
2017-08-07T08:14:25.261Z,3.07
2017-08-07T08:16:52.829Z,2.80
2017-08-07T08:19:20.359Z,2.90
2017-08-07T08:21:47.892Z,3.17
2017-08-07T08:24:15.861Z,3.20
2017-08-07T08:26:43.763Z,2.87
2017-08-07T08:29:11.288Z,2.90
2017-08-07T08:31:39.193Z,3.57
2017-08-07T08:34:06.726Z,2.70
2017-08-07T08:36:34.261Z,3.27
2017-08-07T08:39:01.774Z,3.00
2017-08-07T08:41:29.353Z,2.83
2017-08-07T08:43:56.873Z,3.10
2017-08-07T08:46:24.413Z,3.00
2017-08-07T08:48:52.340Z,3.30
2017-08-07T08:51:19.904Z,3.00
2017-08-07T08:53:47.428Z,3.50
2017-08-07T08:56:14.959Z,3.00
2017-08-07T08:58:42.539Z,3.13
2017-08-07T09:01:10.071Z,3.53
2017-08-07T09:03:37.733Z,2.97
2017-08-07T09:06:05.653Z,3.70
2017-08-07T09:08:33.196Z,3.90
2017-08-07T09:11:00.729Z,3.40
2017-08-07T09:13:28.273Z,3.67
2017-08-07T09:15:56.182Z,2.90
2017-08-07T09:18:23.717Z,3.17
2017-08-07T09:20:51.259Z,3.30
2017-08-07T09:23:19.494Z,3.30
2017-08-07T09:25:47.070Z,3.33
2017-08-07T09:28:14.576Z,3.70
2017-08-07T09:30:42.108Z,3.03
2017-08-07T09:33:09.654Z,3.00
2017-08-07T09:35:37.662Z,3.17
2017-08-07T09:38:05.190Z,3.83
2017-08-07T09:40:32.760Z,3.90
2017-08-07T09:43:00.265Z,3.50
2017-08-07T09:45:27.796Z,2.90
2017-08-07T09:47:55.321Z,3.30
2017-08-07T09:50:22.849Z,3.00
2017-08-07T09:52:50.405Z,2.80
2017-08-07T09:55:18.539Z,3.20
2017-08-07T09:57:46.086Z,3.70
2017-08-07T10:00:13.619Z,3.10
2017-08-07T10:02:41.553Z,2.97
2017-08-07T10:05:09.054Z,2.83
2017-08-07T10:07:36.761Z,2.97
2017-08-07T10:10:04.301Z,3.00
2017-08-07T10:12:31.828Z,3.37
2017-08-07T10:14:59.371Z,2.73
2017-08-07T10:17:27.313Z,3.10
2017-08-07T10:19:54.895Z,2.23
2017-08-07T10:22:22.825Z,2.80
2017-08-07T10:24:50.364Z,2.83
2017-08-07T10:27:17.869Z,2.83
2017-08-07T10:29:45.468Z,2.77
2017-08-07T10:32:12.993Z,2.83
2017-08-07T10:34:40.922Z,2.63
2017-08-07T10:37:08.441Z,2.93
2017-08-07T10:39:35.954Z,3.10
2017-08-07T10:42:03.493Z,2.90
2017-08-07T10:44:31.004Z,2.47
2017-08-07T10:46:58.945Z,3.07
2017-08-07T10:49:26.481Z,2.30
2017-08-07T10:51:54.018Z,2.60
2017-08-07T10:54:21.523Z,2.87
2017-08-07T10:56:49.126Z,2.40
2017-08-07T10:59:16.744Z,2.60
2017-08-07T11:01:44.258Z,2.67
2017-08-07T11:04:11.793Z,2.10
2017-08-07T11:06:39.319Z,2.83
2017-08-07T11:09:06.844Z,2.80
2017-08-07T11:11:34.362Z,2.73
2017-08-07T11:14:01.907Z,2.70
2017-08-07T11:16:29.826Z,2.60
2017-08-07T11:18:57.357Z,2.83
2017-08-07T11:21:24.880Z,2.63
2017-08-07T11:23:52.815Z,2.67
2017-08-07T11:26:20.710Z,2.30
2017-08-07T11:28:48.836Z,2.70
2017-08-07T11:31:16.362Z,2.33
2017-08-07T11:33:43.953Z,2.83
2017-08-07T11:36:11.497Z,3.03
2017-08-07T11:38:39.023Z,2.63
2017-08-07T11:41:06.595Z,3.50
2017-08-07T11:43:34.505Z,3.70
2017-08-07T11:46:02.039Z,2.87
2017-08-07T11:48:29.574Z,2.80
2017-08-07T11:50:57.245Z,3.20
2017-08-07T11:53:24.751Z,2.43
2017-08-07T11:55:52.320Z,2.60
2017-08-07T11:58:19.894Z,2.90
2017-08-07T12:00:47.428Z,3.00
2017-08-07T12:03:14.974Z,2.43
2017-08-07T12:05:42.488Z,2.70
2017-08-07T12:08:10.044Z,2.30
2017-08-07T12:10:37.958Z,2.53
2017-08-07T12:13:05.496Z,2.90
2017-08-07T12:15:33.047Z,2.50
2017-08-07T12:18:00.586Z,2.70
2017-08-07T12:20:28.490Z,2.70
2017-08-07T12:22:56.122Z,2.17
2017-08-07T12:25:23.671Z,2.00
2017-08-07T12:27:51.566Z,2.27
2017-08-07T12:30:19.123Z,2.27
2017-08-07T12:32:46.656Z,2.70
2017-08-07T12:35:14.185Z,3.07
2017-08-07T12:37:41.752Z,2.77
2017-08-07T12:40:09.333Z,2.87
2017-08-07T12:42:36.877Z,2.40
2017-08-07T12:45:04.821Z,2.50
2017-08-07T12:47:32.413Z,2.90
2017-08-07T12:49:59.946Z,2.57
2017-08-07T12:52:27.490Z,2.40
2017-08-07T12:54:55.042Z,2.10
2017-08-07T12:57:22.582Z,2.63
2017-08-07T12:59:50.747Z,2.50
2017-08-07T13:02:18.315Z,2.20
2017-08-07T13:04:45.848Z,2.40
2017-08-07T13:07:13.383Z,2.60
2017-08-07T13:09:40.898Z,2.80
2017-08-07T13:12:08.416Z,2.47
2017-08-07T13:14:35.958Z,2.50
2017-08-07T13:17:03.503Z,2.13
2017-08-07T13:19:31.044Z,2.80
2017-08-07T13:21:58.562Z,2.23
2017-08-07T13:24:26.105Z,2.20
2017-08-07T13:26:53.639Z,2.20
2017-08-07T13:29:21.187Z,2.23
2017-08-07T13:31:49.323Z,2.00
2017-08-07T13:34:16.847Z,2.03
2017-08-07T13:36:44.807Z,1.87
2017-08-07T13:39:12.373Z,1.90
2017-08-07T13:41:39.963Z,2.37
2017-08-07T13:44:07.461Z,2.03
2017-08-07T13:46:35.165Z,2.33
2017-08-07T13:49:02.691Z,2.30
2017-08-07T13:51:30.304Z,2.40
2017-08-07T13:53:57.841Z,2.37
2017-08-07T13:56:25.349Z,1.80
2017-08-07T13:58:52.874Z,1.83
2017-08-07T14:01:20.461Z,2.10
2017-08-07T14:03:48.001Z,2.10
2017-08-07T14:06:15.517Z,2.20
2017-08-07T14:08:43.097Z,2.23
2017-08-07T14:11:10.633Z,2.00
2017-08-07T14:13:38.185Z,2.00
2017-08-07T14:16:06.118Z,2.40
2017-08-07T14:18:33.671Z,2.07
2017-08-07T14:21:01.196Z,2.20
2017-08-07T14:23:28.713Z,2.00
2017-08-07T14:25:56.243Z,1.70
2017-08-07T14:28:23.758Z,1.63
2017-08-07T14:30:51.754Z,2.07
2017-08-07T14:33:19.589Z,1.93
2017-08-07T14:35:47.109Z,1.90
2017-08-07T14:38:14.618Z,1.77
2017-08-07T14:40:42.167Z,1.90
2017-08-07T14:43:09.719Z,1.87
2017-08-07T14:45:37.255Z,2.40
2017-08-07T14:48:05.186Z,1.83
2017-08-07T14:50:32.731Z,2.00
2017-08-07T14:53:00.289Z,2.00
2017-08-07T14:55:27.847Z,2.10
2017-08-07T14:57:55.632Z,1.97
2017-08-07T15:00:23.499Z,2.17
2017-08-07T15:02:51.956Z,2.50
2017-08-07T15:05:19.465Z,2.47
2017-08-07T15:07:46.964Z,2.30
2017-08-07T15:10:14.550Z,2.30
2017-08-07T15:12:42.097Z,2.40
2017-08-07T15:15:09.626Z,2.03
2017-08-07T15:17:37.204Z,2.20
2017-08-07T15:20:04.741Z,1.90
2017-08-07T15:22:32.321Z,2.33
2017-08-07T15:24:59.870Z,2.33
2017-08-07T15:27:27.409Z,2.00
2017-08-07T15:29:55.344Z,2.57
2017-08-07T15:32:22.880Z,2.30
2017-08-07T15:34:50.434Z,5.10
2017-08-07T15:37:17.952Z,3.03
2017-08-07T15:39:45.511Z,2.47
2017-08-07T15:42:13.009Z,2.40
2017-08-07T15:44:40.684Z,3.00
2017-08-07T15:47:08.186Z,2.50
2017-08-07T15:49:35.787Z,2.13
2017-08-07T15:52:03.320Z,2.30
2017-08-07T15:54:30.856Z,2.23
2017-08-07T15:56:58.782Z,2.00
2017-08-07T15:59:26.396Z,2.40
2017-08-07T16:01:53.964Z,2.67
2017-08-07T16:04:22.093Z,2.50
2017-08-07T16:06:50.032Z,2.67
2017-08-07T16:09:17.998Z,2.80
2017-08-07T16:11:45.507Z,3.70
2017-08-07T16:14:14.259Z,2.60
2017-08-07T16:16:41.911Z,2.27
2017-08-07T16:19:09.476Z,2.70
2017-08-07T16:21:37.005Z,2.97
2017-08-07T16:24:04.529Z,2.50
2017-08-07T16:26:32.093Z,3.30
2017-08-07T16:28:59.650Z,2.77
2017-08-07T16:31:27.310Z,2.97
2017-08-07T16:33:54.970Z,2.23
2017-08-07T16:36:22.569Z,2.53
2017-08-07T16:38:50.250Z,2.47
2017-08-07T16:41:18.440Z,2.90
2017-08-07T16:43:46.033Z,2.70
2017-08-07T16:46:13.575Z,2.07
2017-08-07T16:48:41.130Z,2.60
2017-08-07T16:51:08.918Z,2.50
2017-08-07T16:53:36.489Z,2.80
2017-08-07T16:56:04.047Z,3.00
2017-08-07T16:58:31.613Z,2.67
2017-08-07T17:00:59.338Z,3.60
2017-08-07T17:03:27.274Z,2.77
2017-08-07T17:05:54.790Z,2.87
2017-08-07T17:08:22.335Z,2.57
2017-08-07T17:10:49.904Z,3.40
2017-08-07T17:13:17.489Z,4.40
2017-08-07T17:15:45.029Z,4.07
2017-08-07T17:18:12.566Z,3.20
2017-08-07T17:20:40.272Z,3.00
2017-08-07T17:23:07.825Z,2.70
2017-08-07T17:25:35.338Z,3.00
2017-08-07T17:28:03.325Z,2.93
2017-08-07T17:30:30.857Z,2.90
2017-08-07T17:32:58.793Z,2.50
2017-08-07T17:35:26.294Z,3.50
2017-08-07T17:37:53.881Z,2.30
2017-08-07T17:40:21.620Z,2.30
2017-08-07T17:42:49.130Z,2.47
2017-08-07T17:45:16.762Z,2.60
2017-08-07T17:47:44.294Z,2.87
2017-08-07T17:50:11.938Z,2.90
2017-08-07T17:52:39.459Z,3.70
2017-08-07T17:55:07.135Z,2.60
2017-08-07T17:57:36.375Z,2.60
2017-08-07T18:00:03.907Z,2.57
2017-08-07T18:02:32.097Z,2.80
2017-08-07T18:04:59.641Z,3.07
2017-08-07T18:07:27.930Z,2.80
2017-08-07T18:09:55.554Z,2.97
2017-08-07T18:12:23.289Z,2.90
2017-08-07T18:14:50.856Z,2.77
2017-08-07T18:17:19.704Z,3.20
2017-08-07T18:19:47.216Z,4.17
2017-08-07T18:22:14.743Z,3.60
2017-08-07T18:24:42.328Z,3.00
2017-08-07T18:27:09.864Z,3.47
2017-08-07T18:29:37.418Z,3.60
2017-08-07T18:32:04.965Z,3.00
2017-08-07T18:34:32.505Z,3.40
2017-08-07T18:37:00.068Z,3.30
2017-08-07T18:39:27.640Z,3.63
2017-08-07T18:41:55.170Z,3.53
2017-08-07T18:44:23.085Z,2.97
2017-08-07T18:46:51.056Z,3.30
2017-08-07T18:49:18.713Z,3.13
2017-08-07T18:51:46.306Z,3.10
2017-08-07T18:54:13.837Z,3.60
2017-08-07T18:56:41.359Z,3.23
2017-08-07T18:59:09.166Z,3.23
2017-08-07T19:01:36.750Z,3.17
2017-08-07T19:04:04.682Z,3.37
2017-08-07T19:06:32.248Z,3.47
2017-08-07T19:08:59.794Z,3.30
2017-08-07T19:11:27.333Z,3.83
2017-08-07T19:13:54.882Z,3.23
2017-08-07T19:16:23.040Z,3.40
2017-08-07T19:18:51.028Z,3.60
2017-08-07T19:21:18.537Z,3.50
2017-08-07T19:23:46.094Z,3.57
2017-08-07T19:26:13.600Z,3.63
2017-08-07T19:28:41.131Z,3.10
2017-08-07T19:31:09.059Z,3.70
2017-08-07T19:33:36.571Z,3.70
2017-08-07T19:36:04.099Z,4.37
2017-08-07T19:38:31.624Z,3.40
2017-08-07T19:40:59.186Z,3.60
2017-08-07T19:43:26.696Z,3.70
2017-08-07T19:45:54.699Z,3.70
2017-08-07T19:48:22.294Z,3.43
2017-08-07T19:50:49.817Z,3.37
2017-08-07T19:53:17.497Z,3.00
2017-08-07T19:55:45.038Z,3.83
2017-08-07T19:58:12.568Z,2.70
2017-08-07T20:00:40.202Z,3.77
2017-08-07T20:03:07.711Z,3.40
2017-08-07T20:05:35.363Z,3.93
2017-08-07T20:08:02.910Z,4.10
2017-08-07T20:10:30.562Z,4.23
2017-08-07T20:12:58.493Z,3.07
2017-08-07T20:15:26.047Z,4.10
2017-08-07T20:17:53.550Z,4.10
2017-08-07T20:20:22.036Z,11.80
2017-08-07T20:22:49.568Z,6.83
2017-08-07T20:25:17.153Z,7.23
2017-08-07T20:27:45.184Z,5.13
2017-08-07T20:30:12.867Z,3.63
2017-08-07T20:32:40.792Z,3.77
2017-08-07T20:35:08.332Z,5.13
2017-08-07T20:37:35.869Z,3.60
2017-08-07T20:40:03.529Z,4.20
2017-08-07T20:42:31.105Z,4.30
2017-08-07T20:44:58.631Z,6.10
2017-08-07T20:47:26.189Z,4.27
2017-08-07T20:49:54.113Z,4.37
2017-08-07T20:52:21.695Z,3.87
2017-08-07T20:54:49.225Z,3.87
2017-08-07T20:57:16.751Z,4.60
2017-08-07T20:59:44.442Z,4.83
2017-08-07T21:02:11.975Z,4.80
2017-08-07T21:04:39.494Z,5.27
2017-08-07T21:07:07.015Z,4.90
2017-08-07T21:09:34.551Z,4.73
2017-08-07T21:12:02.050Z,4.63
2017-08-07T21:14:29.575Z,4.30
2017-08-07T21:16:57.098Z,4.50
2017-08-07T21:19:24.635Z,4.30
2017-08-07T21:21:52.135Z,5.20
2017-08-07T21:24:19.650Z,4.90
2017-08-07T21:26:47.164Z,4.90
2017-08-07T21:29:14.810Z,4.50
2017-08-07T21:31:42.319Z,4.03
2017-08-07T21:34:09.837Z,4.33
2017-08-07T21:36:37.376Z,4.40
2017-08-07T21:39:04.875Z,4.40
2017-08-07T21:41:32.412Z,4.80
2017-08-07T21:43:59.912Z,3.90
2017-08-07T21:46:27.438Z,3.80
2017-08-07T21:48:54.952Z,4.03
2017-08-07T21:51:22.613Z,4.43
2017-08-07T21:53:50.162Z,5.27
2017-08-07T21:56:18.089Z,4.77
2017-08-07T21:58:45.588Z,3.70
2017-08-07T22:01:13.541Z,4.10
2017-08-07T22:03:41.110Z,4.03
2017-08-07T22:06:09.006Z,3.93
2017-08-07T22:08:36.542Z,4.37
2017-08-07T22:11:04.455Z,3.83
2017-08-07T22:13:31.974Z,4.23
2017-08-07T22:15:59.487Z,4.00
2017-08-07T22:18:27.052Z,4.20
2017-08-07T22:20:54.581Z,4.10
2017-08-07T22:23:23.434Z,4.03
2017-08-07T22:25:51.003Z,4.40
2017-08-07T22:28:18.533Z,3.80
2017-08-07T22:30:46.066Z,3.90
2017-08-07T22:33:13.566Z,3.53
2017-08-07T22:35:41.484Z,3.90
2017-08-07T22:38:08.990Z,3.87
2017-08-07T22:40:36.520Z,4.20
2017-08-07T22:43:04.049Z,4.10
2017-08-07T22:45:31.613Z,3.77
2017-08-07T22:47:59.130Z,4.03
2017-08-07T22:50:26.644Z,3.90
2017-08-07T22:52:54.184Z,3.30
2017-08-07T22:55:22.654Z,3.50
2017-08-07T22:57:50.191Z,3.43
2017-08-07T23:00:17.726Z,3.47
2017-08-07T23:02:45.647Z,3.20
2017-08-07T23:05:13.150Z,3.17
2017-08-07T23:07:41.069Z,3.50
2017-08-07T23:10:08.589Z,3.60
2017-08-07T23:12:36.146Z,3.10
2017-08-07T23:15:03.669Z,3.23
2017-08-07T23:17:31.190Z,3.73
2017-08-07T23:19:58.721Z,3.37
2017-08-07T23:22:26.262Z,3.37
2017-08-07T23:24:54.211Z,2.90
2017-08-07T23:27:21.750Z,3.30
2017-08-07T23:29:49.288Z,3.37
2017-08-07T23:32:16.793Z,3.80
2017-08-07T23:34:44.724Z,3.23
2017-08-07T23:37:12.227Z,3.30
2017-08-07T23:39:40.187Z,3.03
2017-08-07T23:42:08.110Z,3.50
2017-08-07T23:44:35.609Z,3.03
2017-08-07T23:47:03.130Z,3.43
2017-08-07T23:49:30.649Z,3.10
2017-08-07T23:51:58.305Z,3.40
2017-08-07T23:54:26.223Z,2.97
2017-08-07T23:56:54.070Z,3.30
2017-08-07T23:59:22.328Z,3.13
